Time;durP1;ratioP1;P1;durP2;ratioP2;P2;SDS_P1;SDS_P2;PMS_P1;PMS_P2;Temp;Humidity;BMP_temperature;BMP_pressure;BME280_temperature;BME280_humidity;BME280_pressure;Samples;Min_cycle;Max_cycle;Signal;HPM_P1;HPM_P2
2022/03/19 00:02:49;;;;;;;8.00;2.40;;;6.00;99.90;;;;;;6740723;88;20310;-74
2022/03/19 00:12:49;;;;;;;7.78;2.70;;;6.00;99.90;;;;;;6738524;88;20498;-74
2022/03/19 00:22:51;;;;;;;8.65;2.83;;;5.80;99.90;;;;;;6738730;88;20708;-74
2022/03/19 00:32:51;;;;;;;7.85;2.47;;;5.70;99.90;;;;;;6738210;88;20201;-73
2022/03/19 00:42:52;;;;;;;6.80;2.58;;;5.50;99.90;;;;;;6742016;88;20199;-74
2022/03/19 00:52:53;;;;;;;7.32;2.70;;;5.40;99.90;;;;;;6748529;88;20597;-74
2022/03/19 01:02:55;;;;;;;5.68;2.60;;;5.50;99.90;;;;;;6739705;88;20246;-74
2022/03/19 01:12:57;;;;;;;8.07;2.40;;;5.20;99.90;;;;;;6746372;88;20245;-74
2022/03/19 01:22:58;;;;;;;7.90;3.00;;;5.10;99.90;;;;;;6721006;88;20185;-74
2022/03/19 01:32:58;;;;;;;9.60;2.60;;;5.00;99.90;;;;;;6741903;88;20216;-74
2022/03/19 01:43:00;;;;;;;9.65;3.30;;;5.00;99.90;;;;;;6734232;88;20221;-73
2022/03/19 01:53:02;;;;;;;6.15;2.33;;;5.10;99.90;;;;;;6746785;88;20181;-74
2022/03/19 02:03:03;;;;;;;8.18;2.37;;;5.40;99.90;;;;;;6740229;88;20178;-76
2022/03/19 02:13:03;;;;;;;7.00;2.50;;;5.60;99.90;;;;;;6738111;88;20314;-74
2022/03/19 02:33:23;;;;;;;7.75;2.60;;;5.70;99.90;;;;;;6737797;88;20180;-73
2022/03/19 02:43:24;;;;;;;11.73;2.60;;;5.30;99.90;;;;;;6736921;88;20218;-74
2022/03/19 02:53:24;;;;;;;6.50;2.50;;;5.10;99.90;;;;;;6730179;88;20567;-74
2022/03/19 03:03:24;;;;;;;5.82;2.30;;;5.10;99.90;;;;;;6724006;88;20298;-74
2022/03/19 03:13:25;;;;;;;6.15;2.22;;;5.10;99.90;;;;;;6721763;88;20303;-74
2022/03/19 03:23:26;;;;;;;6.32;2.30;;;5.30;99.90;;;;;;6701295;88;20197;-74
2022/03/19 03:33:26;;;;;;;6.18;2.15;;;5.30;99.90;;;;;;6723026;88;20176;-74
2022/03/19 03:43:27;;;;;;;5.55;2.20;;;5.20;99.90;;;;;;6722542;87;20226;-74
2022/03/19 03:53:28;;;;;;;6.12;2.05;;;5.40;99.90;;;;;;6728405;88;20206;-74
2022/03/19 04:03:29;;;;;;;8.45;2.22;;;5.70;99.90;;;;;;6726314;88;20356;-74
2022/03/19 04:13:29;;;;;;;6.00;1.90;;;5.60;99.90;;;;;;6722525;88;20264;-74
2022/03/19 04:23:30;;;;;;;4.90;2.03;;;5.70;99.90;;;;;;6724413;88;20310;-74
2022/03/19 04:33:31;;;;;;;8.32;2.20;;;5.60;99.90;;;;;;6730474;88;20316;-74
2022/03/19 04:43:32;;;;;;;7.65;2.12;;;5.70;99.90;;;;;;6721155;88;20193;-74
2022/03/19 04:53:32;;;;;;;5.32;2.03;;;5.70;99.90;;;;;;6722162;88;20346;-74
2022/03/19 05:03:33;;;;;;;7.60;2.67;;;6.00;99.90;;;;;;6727201;88;20254;-74
2022/03/19 05:13:33;;;;;;;9.00;2.92;;;5.50;99.90;;;;;;6725529;88;20252;-74
2022/03/19 05:23:34;;;;;;;8.82;2.75;;;4.90;99.90;;;;;;6720339;88;20284;-74
2022/03/19 05:43:54;;;;;;;7.32;2.87;;;4.20;99.90;;;;;;6726324;88;20177;-74
2022/03/19 05:53:55;;;;;;;7.55;3.40;;;4.00;99.90;;;;;;6720164;88;20195;-74
2022/03/19 06:03:57;;;;;;;7.15;3.53;;;3.90;99.90;;;;;;6718356;88;20239;-74
2022/03/19 06:13:57;;;;;;;8.27;4.30;;;3.90;99.90;;;;;;6730423;88;20210;-76
2022/03/19 06:23:58;;;;;;;10.80;4.07;;;3.90;99.90;;;;;;6725164;88;20193;-74
2022/03/19 06:33:59;;;;;;;7.53;3.50;;;3.80;99.90;;;;;;6727893;88;20759;-74
2022/03/19 06:43:59;;;;;;;9.90;3.45;;;3.80;99.90;;;;;;6724724;88;20198;-74
2022/03/19 06:54:00;;;;;;;12.18;3.70;;;4.00;99.90;;;;;;6727816;88;20522;-74
2022/03/19 07:04:00;;;;;;;8.38;3.20;;;3.90;99.90;;;;;;6733735;88;20242;-74
2022/03/19 07:14:03;;;;;;;8.88;3.58;;;4.00;99.90;;;;;;6732981;88;20211;-74
2022/03/19 07:24:04;;;;;;;9.10;3.50;;;4.60;99.90;;;;;;6724598;88;20377;-74
2022/03/19 07:34:04;;;;;;;10.05;4.00;;;5.40;99.90;;;;;;6730143;88;20188;-74
2022/03/19 07:44:05;;;;;;;8.25;3.50;;;6.20;99.90;;;;;;6727913;88;20230;-75
2022/03/19 07:54:05;;;;;;;9.80;3.22;;;7.10;99.90;;;;;;6718404;88;20169;-74
2022/03/19 08:04:06;;;;;;;8.50;3.37;;;8.10;99.90;;;;;;6708146;88;20686;-75
2022/03/19 08:14:07;;;;;;;7.93;3.08;;;9.10;99.90;;;;;;6707723;88;20349;-75
2022/03/19 08:24:08;;;;;;;10.75;3.40;;;10.30;99.90;;;;;;6703791;88;20170;-75
2022/03/19 08:34:08;;;;;;;9.60;3.37;;;11.20;99.90;;;;;;6706455;88;20206;-76
2022/03/19 08:44:09;;;;;;;8.38;3.42;;;12.40;99.90;;;;;;6715009;88;20200;-76
2022/03/19 08:54:16;;;;;;;8.35;3.17;;;13.00;99.40;;;;;;6724609;88;20234;-76
2022/03/19 09:04:18;;;;;;;6.90;2.70;;;13.30;96.70;;;;;;6723423;88;20189;-76
2022/03/19 09:14:20;;;;;;;8.63;2.62;;;12.50;96.90;;;;;;6740951;88;20205;-75
2022/03/19 09:24:21;;;;;;;6.07;2.35;;;12.20;95.20;;;;;;6734382;88;20247;-77
2022/03/19 09:34:21;;;;;;;8.27;3.00;;;12.60;94.10;;;;;;6730091;88;20308;-77
2022/03/19 09:44:25;;;;;;;6.18;2.60;;;12.90;93.40;;;;;;6730148;88;20205;-77
2022/03/19 09:54:26;;;;;;;8.00;2.65;;;13.90;93.30;;;;;;6732057;88;20181;-77
2022/03/19 10:04:30;;;;;;;6.90;2.80;;;14.80;91.80;;;;;;6727143;88;20228;-76
2022/03/19 10:14:32;;;;;;;5.43;2.65;;;16.40;86.50;;;;;;6732601;88;20243;-75
2022/03/19 10:24:36;;;;;;;6.07;2.58;;;16.50;81.90;;;;;;6717538;88;20259;-76
2022/03/19 10:34:40;;;;;;;6.20;2.40;;;17.00;78.40;;;;;;6723624;88;20193;-75
2022/03/19 10:44:40;;;;;;;4.75;2.28;;;16.00;78.20;;;;;;6726566;88;20235;-76
2022/03/19 10:54:41;;;;;;;5.28;2.15;;;16.30;76.00;;;;;;6723010;88;20392;-75
2022/03/19 11:04:43;;;;;;;5.10;1.90;;;17.40;67.10;;;;;;6707668;88;20203;-76
2022/03/19 11:14:44;;;;;;;3.97;1.50;;;17.10;67.70;;;;;;6720985;88;21133;-76
2022/03/19 11:25:13;;;;;;;3.92;2.35;;;16.70;63.80;;;;;;6723849;88;20180;-74
2022/03/19 11:35:14;;;;;;;6.87;2.60;;;17.60;65.30;;;;;;6726992;88;20254;-74
2022/03/19 11:45:14;;;;;;;3.70;1.27;;;18.50;63.50;;;;;;6718285;88;20691;-76
2022/03/19 11:55:19;;;;;;;2.15;1.10;;;18.60;58.60;;;;;;6719177;88;20723;-76
2022/03/19 12:05:26;;;;;;;3.57;1.00;;;18.20;53.50;;;;;;6720375;88;20375;-76
2022/03/19 12:15:32;;;;;;;4.20;1.20;;;17.70;51.10;;;;;;6726728;88;20185;-75
2022/03/19 12:25:39;;;;;;;2.97;1.15;;;17.40;49.20;;;;;;6720636;88;20284;-75
2022/03/19 12:35:43;;;;;;;2.47;1.10;;;17.70;51.10;;;;;;6719673;88;20359;-75
2022/03/19 12:45:47;;;;;;;2.47;1.00;;;17.10;50.80;;;;;;6724816;88;20338;-77
2022/03/19 12:55:48;;;;;;;3.57;1.13;;;17.70;52.60;;;;;;6722598;88;20181;-75
2022/03/19 13:05:52;;;;;;;2.42;1.10;;;19.30;52.20;;;;;;6717711;88;20328;-75
2022/03/19 13:15:54;;;;;;;2.60;0.93;;;19.00;51.60;;;;;;6729446;88;20628;-75
2022/03/19 13:25:56;;;;;;;2.80;0.90;;;20.20;48.70;;;;;;6732305;88;20197;-77
2022/03/19 13:35:58;;;;;;;2.22;0.60;;;20.90;45.30;;;;;;6719101;88;20313;-75
2022/03/19 13:46:16;;;;;;;2.08;0.65;;;18.70;45.20;;;;;;6735175;88;20677;-76
2022/03/19 13:56:17;;;;;;;2.03;0.73;;;19.90;44.90;;;;;;6723581;88;20214;-75
2022/03/19 14:06:17;;;;;;;4.70;0.70;;;20.00;44.60;;;;;;6701426;88;20183;-75
2022/03/19 14:16:18;;;;;;;2.92;0.68;;;17.60;45.90;;;;;;6691507;88;20169;-76
2022/03/19 14:26:18;;;;;;;2.20;0.70;;;17.90;47.60;;;;;;6733647;88;20175;-76
2022/03/19 14:36:19;;;;;;;4.97;0.60;;;18.20;44.60;;;;;;6738996;88;20230;-77
2022/03/19 14:46:19;;;;;;;1.50;0.60;;;18.00;45.10;;;;;;6734760;77;20308;-76
2022/03/19 14:56:20;;;;;;;4.03;1.48;;;17.90;45.50;;;;;;6712133;88;20205;-77
2022/03/19 15:06:23;;;;;;;1.90;0.60;;;17.00;47.30;;;;;;6701150;88;20182;-77
2022/03/19 15:16:23;;;;;;;3.42;0.70;;;16.10;46.30;;;;;;6706878;88;20317;-77
2022/03/19 15:26:24;;;;;;;3.47;0.70;;;15.60;48.20;;;;;;6703308;88;20186;-76
2022/03/19 15:36:28;;;;;;;2.47;0.50;;;16.00;48.70;;;;;;6698225;88;20311;-79
2022/03/19 15:46:29;;;;;;;5.10;0.55;;;14.90;48.80;;;;;;6705194;88;20631;-77
2022/03/19 15:56:30;;;;;;;2.17;0.70;;;14.50;51.20;;;;;;6683825;88;20237;-77
2022/03/19 16:06:32;;;;;;;3.53;1.33;;;13.40;52.70;;;;;;6684044;88;21325;-76
2022/03/19 16:16:32;;;;;;;5.05;0.80;;;13.20;52.10;;;;;;6684376;88;20247;-78
2022/03/19 16:26:33;;;;;;;3.17;0.60;;;14.20;51.40;;;;;;6684627;88;20226;-76
2022/03/19 16:36:33;;;;;;;2.12;0.60;;;12.90;53.60;;;;;;6688861;88;20602;-73
2022/03/19 16:46:34;;;;;;;3.05;0.60;;;11.90;55.30;;;;;;6684407;88;20186;-73
2022/03/19 16:56:34;;;;;;;3.17;0.70;;;11.90;56.90;;;;;;6702633;88;20316;-77
2022/03/19 17:06:35;;;;;;;3.75;0.82;;;11.60;57.30;;;;;;6698609;88;20211;-75
2022/03/19 17:16:36;;;;;;;4.50;1.05;;;11.30;58.80;;;;;;6702195;88;20185;-78
2022/03/19 17:26:37;;;;;;;6.95;0.98;;;11.50;59.90;;;;;;6704680;88;20193;-77
2022/03/19 17:36:39;;;;;;;3.33;0.85;;;10.90;63.80;;;;;;6707766;88;20591;-78
2022/03/19 17:47:00;;;;;;;5.00;1.10;;;10.40;65.10;;;;;;6722799;77;20265;-77
2022/03/19 17:57:01;;;;;;;2.15;0.90;;;10.10;67.10;;;;;;6730541;88;20178;-77
2022/03/19 18:07:01;;;;;;;5.33;0.93;;;9.80;67.80;;;;;;6724959;88;20197;-77
2022/03/19 18:17:02;;;;;;;2.65;0.95;;;9.60;68.50;;;;;;6720798;88;20635;-78
2022/03/19 18:27:03;;;;;;;4.85;1.10;;;9.40;69.10;;;;;;6718104;88;20194;-77
2022/03/19 18:37:04;;;;;;;3.50;0.98;;;9.30;70.60;;;;;;6708925;88;20641;-77
2022/03/19 18:47:06;;;;;;;3.25;0.90;;;9.00;71.10;;;;;;6712298;88;20189;-77
2022/03/19 18:57:06;;;;;;;3.60;1.00;;;8.80;71.90;;;;;;6707251;88;20183;-78
2022/03/19 19:07:07;;;;;;;2.87;0.90;;;8.60;73.30;;;;;;6723905;88;20320;-78
2022/03/19 19:17:08;;;;;;;4.47;1.20;;;8.40;75.00;;;;;;6718580;88;20236;-77
2022/03/19 19:27:11;;;;;;;3.60;1.20;;;8.30;77.70;;;;;;6716640;88;20240;-78
2022/03/19 19:37:12;;;;;;;4.62;1.83;;;8.30;79.50;;;;;;6729069;88;20186;-79
2022/03/19 19:47:12;;;;;;;6.07;2.08;;;6.50;99.90;;;;;;6729192;88;20209;-79
2022/03/19 20:07:40;;;;;;;8.18;3.25;;;6.30;99.90;;;;;;6725777;88;20206;-78
2022/03/19 20:17:41;;;;;;;9.70;4.00;;;6.50;99.90;;;;;;6722445;88;20198;-77
2022/03/19 20:27:43;;;;;;;9.65;4.10;;;6.60;99.90;;;;;;6724334;88;20190;-77
2022/03/19 20:37:47;;;;;;;9.85;3.92;;;6.70;99.90;;;;;;6741121;88;20794;-78
2022/03/19 20:57:52;;;;;;;12.68;5.57;;;6.60;99.90;;;;;;6747237;88;20748;-79
2022/03/19 21:07:55;;;;;;;11.85;6.30;;;6.60;99.90;;;;;;6749282;88;21056;-78
2022/03/19 21:18:02;;;;;;;12.80;7.40;;;6.90;99.90;;;;;;6753545;88;20213;-80
2022/03/19 21:28:03;;;;;;;18.67;7.72;;;6.80;99.90;;;;;;6735919;88;20193;-80
2022/03/19 21:38:04;;;;;;;13.02;7.72;;;6.90;99.90;;;;;;6738390;88;20274;-80
2022/03/19 21:48:07;;;;;;;16.45;9.15;;;6.60;99.90;;;;;;6731568;88;20659;-78
2022/03/19 21:58:07;;;;;;;19.35;9.50;;;6.70;99.90;;;;;;6726012;88;20272;-79
2022/03/19 22:08:08;;;;;;;20.75;11.12;;;6.40;99.90;;;;;;6727677;88;20180;-78
2022/03/19 22:18:15;;;;;;;20.62;9.68;;;6.40;99.90;;;;;;6729584;88;20237;-79
2022/03/19 22:28:17;;;;;;;20.58;10.85;;;6.40;99.90;;;;;;6730612;88;20204;-78
2022/03/19 22:38:18;;;;;;;19.25;11.60;;;6.40;99.90;;;;;;6726269;88;20193;-79
2022/03/19 22:48:18;;;;;;;20.98;11.48;;;6.20;99.90;;;;;;6735438;88;20297;-78
2022/03/19 22:58:19;;;;;;;18.08;11.05;;;6.20;99.90;;;;;;6748188;88;20713;-80
2022/03/19 23:08:20;;;;;;;22.13;11.90;;;6.20;99.90;;;;;;6749455;88;20491;-79
2022/03/19 23:18:24;;;;;;;21.20;12.48;;;6.00;99.90;;;;;;6747271;88;20698;-79
2022/03/19 23:28:25;;;;;;;20.20;11.95;;;6.00;99.90;;;;;;6748973;88;20193;-79
2022/03/19 23:38:26;;;;;;;22.37;11.80;;;6.00;99.90;;;;;;6748961;88;20196;-79
2022/03/19 23:48:28;;;;;;;19.95;11.57;;;6.10;99.90;;;;;;6749046;88;22167;-79
2022/03/19 23:58:28;;;;;;;21.58;11.45;;;6.00;99.90;;;;;;6752190;88;20263;-79
